Time;durP1;ratioP1;P1;durP2;ratioP2;P2;SDS_P1;SDS_P2;PMS_P1;PMS_P2;Temp;Humidity;BMP_temperature;BMP_pressure;BME280_temperature;BME280_humidity;BME280_pressure;Samples;Min_cycle;Max_cycle;Signal;HPM_P1;HPM_P2
2021/10/06 00:01:49;;;;;;;2.47;1.80;;;;;;;23.11;32.28;102958.78;5000706;28;20355;-72
2021/10/06 00:04:17;;;;;;;3.38;1.75;;;;;;;23.20;32.31;102957.44;4994042;28;20061;-72
2021/10/06 00:06:45;;;;;;;2.47;1.95;;;;;;;23.21;31.98;102948.34;4991070;28;20396;-72
2021/10/06 00:09:14;;;;;;;2.80;2.00;;;;;;;23.12;32.41;102952.38;4991491;28;20458;-73
2021/10/06 00:11:41;;;;;;;2.40;1.63;;;;;;;23.21;32.26;102951.94;4997153;28;20049;-73
2021/10/06 00:14:09;;;;;;;2.35;1.80;;;;;;;23.14;32.36;102942.34;5010479;28;20061;-73
2021/10/06 00:16:37;;;;;;;2.08;1.52;;;;;;;23.06;32.25;102949.97;5011078;28;20430;-71
2021/10/06 00:19:04;;;;;;;3.10;2.03;;;;;;;23.20;32.04;102946.56;4995854;28;20142;-72
2021/10/06 00:21:32;;;;;;;3.38;1.92;;;;;;;23.23;32.16;102954.56;4991293;28;20061;-73
2021/10/06 00:24:00;;;;;;;3.63;2.10;;;;;;;23.25;31.89;102952.66;4989644;28;20058;-73
2021/10/06 00:26:29;;;;;;;3.35;2.08;;;;;;;23.27;31.96;102954.34;5013819;28;20067;-73
2021/10/06 00:28:57;;;;;;;2.83;1.83;;;;;;;23.17;32.08;102942.19;5009930;28;20061;-72
2021/10/06 00:31:24;;;;;;;2.58;1.75;;;;;;;23.17;32.36;102944.91;4995814;28;20061;-72
2021/10/06 00:33:52;;;;;;;2.92;2.05;;;;;;;23.13;32.13;102940.59;5010916;28;20057;-72
2021/10/06 00:36:20;;;;;;;2.45;2.05;;;;;;;23.23;31.98;102949.13;5000999;28;20495;-72
2021/10/06 00:38:47;;;;;;;2.70;1.85;;;;;;;23.04;32.20;102925.63;4995398;28;20054;-73
2021/10/06 00:41:15;;;;;;;2.90;1.90;;;;;;;23.06;32.23;102945.44;5006267;28;20053;-72
2021/10/06 00:43:44;;;;;;;2.42;1.85;;;;;;;23.12;32.10;102946.97;4983923;28;20051;-72
2021/10/06 00:46:12;;;;;;;2.30;1.83;;;;;;;23.15;32.13;102944.09;4995065;28;20408;-71
2021/10/06 00:48:39;;;;;;;2.72;1.90;;;;;;;23.05;32.60;102942.78;5006865;28;20057;-72
2021/10/06 00:51:07;;;;;;;3.40;2.00;;;;;;;23.25;32.08;102953.53;5011183;28;20072;-72
2021/10/06 00:53:35;;;;;;;2.70;2.00;;;;;;;23.23;32.09;102947.28;5009274;28;20054;-73
2021/10/06 00:56:03;;;;;;;2.58;1.70;;;;;;;23.19;32.04;102950.25;5012500;28;20433;-73
2021/10/06 00:58:30;;;;;;;2.70;1.80;;;;;;;23.17;32.00;102949.47;5014201;28;20053;-73
2021/10/06 01:00:59;;;;;;;2.75;1.88;;;;;;;23.19;31.96;102945.69;5013797;28;20414;-72
2021/10/06 01:03:27;;;;;;;2.72;1.83;;;;;;;23.12;31.96;102935.22;5009193;28;20049;-70
2021/10/06 01:05:54;;;;;;;2.90;1.98;;;;;;;23.07;32.43;102943.59;5001074;28;20054;-72
2021/10/06 01:08:22;;;;;;;2.50;1.90;;;;;;;23.09;32.43;102945.25;5012407;28;20057;-72
2021/10/06 01:10:52;;;;;;;2.97;1.98;;;;;;;22.98;32.50;102941.34;5011697;28;20057;-70
2021/10/06 01:13:21;;;;;;;2.13;1.52;;;;;;;23.05;32.43;102948.22;5011247;28;20062;-72
2021/10/06 01:15:49;;;;;;;2.63;1.90;;;;;;;23.10;32.17;102941.63;5014263;28;20053;-72
2021/10/06 01:18:18;;;;;;;2.63;1.90;;;;;;;22.86;32.35;102924.66;5013708;28;20056;-72
2021/10/06 01:20:46;;;;;;;2.58;1.83;;;;;;;23.08;32.22;102943.50;5008321;28;20061;-71
2021/10/06 01:23:15;;;;;;;3.45;2.25;;;;;;;23.02;32.22;102941.09;4994020;28;20054;-70
2021/10/06 01:25:43;;;;;;;2.58;1.65;;;;;;;23.02;32.28;102942.94;4995934;28;20503;-72
2021/10/06 01:28:13;;;;;;;3.60;2.15;;;;;;;23.10;32.25;102943.47;4994085;28;20061;-72
2021/10/06 01:30:40;;;;;;;2.75;1.98;;;;;;;23.05;32.20;102934.66;5012144;28;20061;-73
2021/10/06 01:33:08;;;;;;;3.10;1.73;;;;;;;22.89;32.43;102930.91;5004502;28;20058;-73
2021/10/06 01:35:36;;;;;;;2.75;2.00;;;;;;;22.87;32.47;102928.25;5008007;28;20511;-71
2021/10/06 01:38:04;;;;;;;3.38;2.00;;;;;;;23.07;32.07;102940.91;5005576;28;20352;-73
2021/10/06 01:40:33;;;;;;;2.40;1.70;;;;;;;23.05;32.25;102932.81;5013097;28;20542;-72
2021/10/06 01:43:00;;;;;;;3.67;2.22;;;;;;;23.09;32.06;102928.09;4999951;28;20058;-73
2021/10/06 01:45:29;;;;;;;2.63;1.80;;;;;;;22.69;32.33;102870.34;4975901;28;20228;-72
2021/10/06 01:48:04;;;;;;;3.38;2.30;;;;;;;22.91;32.32;102923.56;4997815;28;20077;-72
2021/10/06 01:50:32;;;;;;;2.22;1.67;;;;;;;23.03;32.19;102929.31;5012789;28;20085;-72
2021/10/06 01:53:00;;;;;;;3.38;1.83;;;;;;;22.69;32.45;102883.91;5013182;28;20049;-72
2021/10/06 01:55:28;;;;;;;2.25;1.50;;;;;;;22.81;32.63;102934.84;5010943;28;20050;-72
2021/10/06 01:57:57;;;;;;;3.38;2.10;;;;;;;22.94;32.32;102923.44;5012973;28;20042;-72
2021/10/06 02:00:25;;;;;;;2.80;1.95;;;;;;;22.92;32.56;102936.16;5012967;28;20061;-71
2021/10/06 02:02:52;;;;;;;3.03;1.98;;;;;;;22.94;32.16;102910.75;5007618;28;20513;-72
2021/10/06 02:05:21;;;;;;;2.72;1.80;;;;;;;23.00;32.15;102925.88;5009895;28;20054;-72
2021/10/06 02:07:48;;;;;;;2.67;1.80;;;;;;;22.84;32.35;102923.84;4975646;28;20058;-72
2021/10/06 02:10:16;;;;;;;2.85;1.73;;;;;;;22.87;32.70;102931.84;4993072;28;20054;-73
2021/10/06 02:12:44;;;;;;;2.60;1.70;;;;;;;22.98;32.29;102922.34;5004710;28;20414;-72
2021/10/06 02:15:13;;;;;;;3.42;2.10;;;;;;;22.49;32.24;102854.16;5012828;28;20533;-72
2021/10/06 02:17:40;;;;;;;2.50;1.63;;;;;;;22.92;32.36;102928.97;5012788;28;20042;-72
2021/10/06 02:20:09;;;;;;;2.85;1.83;;;;;;;22.73;32.24;102890.06;5002565;28;20065;-72
2021/10/06 02:22:36;;;;;;;3.58;2.40;;;;;;;22.90;32.29;102927.25;4974923;28;20054;-72
2021/10/06 02:25:05;;;;;;;3.50;2.08;;;;;;;22.53;32.28;102850.34;5000049;28;20081;-70
2021/10/06 02:27:35;;;;;;;2.40;1.60;;;;;;;23.02;32.21;102934.78;5006765;28;20502;-71
2021/10/06 02:30:04;;;;;;;2.55;1.88;;;;;;;22.94;32.21;102918.91;4999652;28;20511;-72
2021/10/06 02:32:33;;;;;;;3.00;1.80;;;;;;;22.87;32.33;102911.97;5009024;28;20073;-73
2021/10/06 02:35:01;;;;;;;3.65;1.95;;;;;;;22.92;32.53;102928.97;5010957;28;20053;-71
2021/10/06 02:37:29;;;;;;;2.78;1.90;;;;;;;22.85;32.05;102889.47;4996660;28;20054;-72
2021/10/06 02:39:57;;;;;;;2.45;1.83;;;;;;;22.80;32.54;102933.09;5012843;28;20414;-72
2021/10/06 02:42:26;;;;;;;3.75;1.90;;;;;;;22.92;32.37;102922.59;5008065;28;20058;-71
2021/10/06 02:44:54;;;;;;;2.85;2.05;;;;;;;22.91;32.22;102927.16;4993023;28;20061;-72
2021/10/06 02:47:21;;;;;;;2.97;2.17;;;;;;;23.03;32.14;102933.88;4998468;28;20510;-71
2021/10/06 02:49:50;;;;;;;2.78;1.95;;;;;;;22.90;32.07;102919.97;5010269;28;20054;-71
2021/10/06 02:52:18;;;;;;;3.05;1.98;;;;;;;22.99;32.28;102929.50;5011088;28;20073;-71
2021/10/06 02:54:45;;;;;;;2.80;1.92;;;;;;;22.84;32.40;102926.56;5010110;28;20518;-72
2021/10/06 02:57:13;;;;;;;2.33;1.70;;;;;;;23.01;32.02;102935.75;5011086;28;20541;-72
2021/10/06 02:59:41;;;;;;;3.80;2.13;;;;;;;22.95;32.25;102926.06;4998052;28;20054;-72
2021/10/06 03:02:09;;;;;;;2.42;1.70;;;;;;;22.96;32.05;102933.28;4996770;28;20054;-72
2021/10/06 03:04:37;;;;;;;2.47;1.85;;;;;;;22.95;32.15;102936.06;5009435;28;20060;-71
2021/10/06 03:07:06;;;;;;;2.60;1.77;;;;;;;22.79;32.42;102933.19;4995431;28;20066;-72
2021/10/06 03:09:34;;;;;;;3.13;2.10;;;;;;;22.53;32.60;102891.03;4991982;28;20054;-72
2021/10/06 03:12:01;;;;;;;3.13;2.15;;;;;;;23.03;31.94;102933.88;4998407;28;20466;-73
2021/10/06 03:14:29;;;;;;;2.28;1.83;;;;;;;22.99;32.19;102935.84;5004113;28;20053;-71
2021/10/06 03:16:56;;;;;;;2.97;1.85;;;;;;;22.80;32.13;102918.66;4992019;28;20066;-71
2021/10/06 03:19:24;;;;;;;3.00;1.80;;;;;;;22.89;32.34;102933.63;5003222;28;20046;-72
2021/10/06 03:21:52;;;;;;;2.50;1.80;;;;;;;22.95;32.04;102934.22;4991787;28;20054;-72
2021/10/06 03:24:21;;;;;;;3.75;1.98;;;;;;;22.82;32.56;102925.78;4992039;28;20423;-72
2021/10/06 03:26:49;;;;;;;2.58;1.92;;;;;;;22.34;32.40;102851.22;5008604;28;20065;-73
2021/10/06 03:29:16;;;;;;;2.90;1.90;;;;;;;22.93;32.18;102924.41;4999177;28;20053;-73
2021/10/06 03:31:44;;;;;;;2.05;1.63;;;;;;;22.92;32.22;102930.75;5010799;28;20054;-71
2021/10/06 03:34:12;;;;;;;2.65;1.90;;;;;;;22.80;32.03;102916.81;4989665;28;20074;-71
2021/10/06 03:36:40;;;;;;;2.88;1.92;;;;;;;22.87;32.33;102937.28;4993128;28;20473;-71
2021/10/06 03:39:08;;;;;;;2.80;1.90;;;;;;;22.89;32.33;102930.91;4991655;28;20050;-72
2021/10/06 03:41:37;;;;;;;2.58;2.08;;;;;;;22.86;32.24;102913.81;4990742;28;20065;-72
2021/10/06 03:44:05;;;;;;;3.05;2.13;;;;;;;22.97;32.26;102934.16;4997383;28;20066;-71
2021/10/06 03:46:33;;;;;;;3.65;2.17;;;;;;;22.93;32.02;102928.00;5006098;28;20064;-71
2021/10/06 03:49:00;;;;;;;3.13;1.77;;;;;;;22.85;32.22;102939.22;5010056;28;20061;-72
2021/10/06 03:51:28;;;;;;;2.63;1.95;;;;;;;22.40;32.19;102860.91;5010674;28;20058;-72
2021/10/06 03:53:55;;;;;;;4.05;2.28;;;;;;;22.86;32.26;102932.81;5009352;28;20053;-71
2021/10/06 03:56:24;;;;;;;2.53;1.70;;;;;;;22.86;32.33;102940.94;5013095;28;20109;-71
2021/10/06 03:58:56;;;;;;;2.78;1.95;;;;;;;22.97;32.20;102940.47;4984453;28;20058;-71
2021/10/06 04:01:24;;;;;;;4.40;2.53;;;;;;;23.11;31.90;102926.19;4993471;28;20052;-70
2021/10/06 04:03:51;;;;;;;2.97;1.90;;;;;;;23.01;32.03;102933.03;5010989;28;20061;-71
2021/10/06 04:06:19;;;;;;;3.90;2.17;;;;;;;22.92;32.50;102930.75;5005750;28;20430;-73
2021/10/06 04:08:47;;;;;;;2.90;2.20;;;;;;;23.02;32.44;102921.22;4994762;28;20054;-73
2021/10/06 04:11:14;;;;;;;3.50;2.40;;;;;;;23.09;32.16;102937.13;5008508;28;20438;-73
2021/10/06 04:13:42;;;;;;;4.43;2.35;;;;;;;23.13;32.36;102936.97;4999339;28;20065;-73
2021/10/06 04:16:12;;;;;;;4.13;2.30;;;;;;;23.17;32.26;102930.47;4991662;28;20057;-73
2021/10/06 04:18:39;;;;;;;5.25;2.10;;;;;;;23.11;32.38;102934.34;5003187;28;20050;-73
2021/10/06 04:21:07;;;;;;;4.68;2.35;;;;;;;23.12;32.40;102925.25;5002039;28;20660;-71
2021/10/06 04:23:35;;;;;;;3.47;2.08;;;;;;;22.97;32.35;102916.03;4990399;28;20066;-72
2021/10/06 04:26:03;;;;;;;2.72;2.22;;;;;;;23.11;32.42;102937.06;5000031;28;20069;-72
2021/10/06 04:28:30;;;;;;;3.30;2.22;;;;;;;23.13;31.92;102940.59;4999732;28;20065;-72
2021/10/06 04:30:58;;;;;;;2.88;2.25;;;;;;;23.20;32.19;102947.47;4993767;28;20367;-72
2021/10/06 04:33:28;;;;;;;3.42;2.15;;;;;;;22.87;32.29;102902.00;4992932;28;20507;-72
2021/10/06 04:35:56;;;;;;;3.45;2.28;;;;;;;23.09;32.15;102937.13;4988837;28;20050;-72
2021/10/06 04:38:23;;;;;;;2.80;1.85;;;;;;;23.15;31.99;102937.78;5005040;28;20057;-73
2021/10/06 04:40:51;;;;;;;2.78;2.00;;;;;;;22.94;32.12;102924.31;4993147;28;20055;-73
2021/10/06 04:43:19;;;;;;;3.90;2.40;;;;;;;23.08;32.36;102948.06;4997458;28;20541;-72
2021/10/06 04:45:47;;;;;;;3.40;1.98;;;;;;;23.08;32.23;102934.50;4990753;28;20054;-72
2021/10/06 04:48:14;;;;;;;3.85;2.28;;;;;;;23.18;31.91;102946.66;4996335;28;20050;-72
2021/10/06 04:50:43;;;;;;;3.80;2.03;;;;;;;22.99;31.81;102899.66;4993005;28;20406;-72
2021/10/06 04:53:11;;;;;;;4.82;2.47;;;;;;;23.16;31.99;102934.97;4993982;28;20042;-72
2021/10/06 04:55:40;;;;;;;3.15;2.05;;;;;;;23.09;32.08;102937.13;4998847;28;20335;-71
2021/10/06 04:58:08;;;;;;;3.20;2.28;;;;;;;23.06;32.10;102939.09;4991236;28;20561;-71
2021/10/06 05:00:35;;;;;;;3.72;2.35;;;;;;;23.15;32.13;102935.94;4991865;28;20058;-72
2021/10/06 05:03:07;;;;;;;3.63;1.98;;;;;;;23.26;31.78;102940.84;4992015;28;20507;-72
2021/10/06 05:05:36;;;;;;;3.67;2.30;;;;;;;23.15;31.79;102932.34;4996429;28;20514;-73
2021/10/06 05:08:06;;;;;;;3.67;2.13;;;;;;;22.32;32.49;102841.41;4994987;28;20050;-72
2021/10/06 05:10:33;;;;;;;4.43;2.15;;;;;;;22.97;31.95;102912.44;4995978;28;20054;-70
2021/10/06 05:13:01;;;;;;;3.70;2.45;;;;;;;23.23;31.70;102939.16;4996134;28;20545;-71
2021/10/06 05:15:29;;;;;;;3.30;2.00;;;;;;;23.24;31.92;102940.06;5001783;28;20046;-71
2021/10/06 05:17:57;;;;;;;2.83;2.22;;;;;;;23.22;31.79;102940.13;4993183;28;20070;-72
2021/10/06 05:20:25;;;;;;;3.30;2.17;;;;;;;23.26;31.65;102949.84;4995534;28;20046;-71
2021/10/06 05:22:55;;;;;;;3.00;2.30;;;;;;;23.10;31.87;102938.91;5003930;28;20514;-71
2021/10/06 05:25:24;;;;;;;3.65;2.38;;;;;;;23.27;31.49;102939.88;4999518;28;20057;-72
2021/10/06 05:27:56;;;;;;;3.15;2.22;;;;;;;23.25;31.82;102949.94;5003669;28;20430;-73
2021/10/06 05:30:24;;;;;;;4.45;2.40;;;;;;;23.27;31.64;102954.34;4993941;28;20057;-72
2021/10/06 05:32:51;;;;;;;3.00;2.00;;;;;;;23.32;31.73;102949.56;4988393;28;20054;-72
2021/10/06 05:35:19;;;;;;;2.40;2.15;;;;;;;23.38;31.50;102953.81;4990901;28;20057;-72
2021/10/06 05:37:47;;;;;;;2.83;2.03;;;;;;;23.42;31.43;102949.97;4999250;28;20060;-72
2021/10/06 05:40:15;;;;;;;3.45;2.35;;;;;;;23.37;31.63;102960.19;4994248;28;20054;-71
2021/10/06 05:42:44;;;;;;;3.30;2.47;;;;;;;23.38;31.61;102955.63;5004076;28;20824;-71
2021/10/06 05:45:14;;;;;;;5.18;2.47;;;;;;;23.38;31.61;102947.47;4997518;28;20070;-72
2021/10/06 05:47:41;;;;;;;3.72;2.38;;;;;;;23.24;31.69;102943.66;5001440;28;20054;-70
2021/10/06 05:50:09;;;;;;;2.58;2.03;;;;;;;23.33;31.43;102959.47;4997520;28;20525;-71
2021/10/06 05:52:37;;;;;;;4.00;2.50;;;;;;;23.44;31.22;102958.91;5002136;28;20051;-72
2021/10/06 05:55:06;;;;;;;3.00;2.08;;;;;;;23.43;31.38;102964.44;4997502;28;20073;-71
2021/10/06 05:57:34;;;;;;;4.57;2.83;;;;;;;23.49;31.26;102958.69;4993318;28;20415;-72
2021/10/06 06:00:03;;;;;;;3.83;2.75;;;;;;;23.41;31.52;102950.03;4995620;28;20069;-74
2021/10/06 06:02:44;;;;;;;3.03;2.17;;;;;;;23.40;31.33;102951.00;4996466;28;20077;-73
2021/10/06 06:05:13;;;;;;;3.85;2.45;;;;;;;23.44;31.42;102966.19;4993474;28;20057;-73
2021/10/06 06:07:41;;;;;;;4.28;3.00;;;;;;;23.42;31.35;102954.53;4995092;28;20053;-73
2021/10/06 06:10:12;;;;;;;4.28;2.60;;;;;;;23.53;31.32;102960.28;4995165;28;20494;-73
2021/10/06 06:12:42;;;;;;;2.97;2.35;;;;;;;23.33;31.33;102958.59;4996655;28;20414;-71
2021/10/06 06:15:13;;;;;;;5.38;4.03;;;;;;;23.01;32.23;102960.19;4997592;28;20053;-72
2021/10/06 06:17:41;;;;;;;3.63;2.90;;;;;;;23.33;32.07;102961.28;4997144;28;20158;-74
2021/10/06 06:20:10;;;;;;;5.22;2.80;;;;;;;23.48;31.92;102959.63;4991432;28;20057;-72
2021/10/06 06:22:38;;;;;;;3.97;2.58;;;;;;;22.99;32.99;102968.41;4995172;28;20088;-71
2021/10/06 06:25:07;;;;;;;5.30;3.50;;;;;;;22.90;32.40;102955.25;4995183;28;20046;-71
2021/10/06 06:27:35;;;;;;;4.65;3.33;;;;;;;22.79;32.58;102963.03;4994479;28;20058;-72
2021/10/06 06:30:06;;;;;;;5.28;3.45;;;;;;;22.98;32.41;102963.06;4992916;28;20046;-72
2021/10/06 06:32:36;;;;;;;5.55;3.70;;;;;;;22.89;31.77;102964.34;4986375;28;20081;-72
2021/10/06 06:35:03;;;;;;;5.22;3.70;;;;;;;22.71;32.40;102940.78;4989220;28;20050;-73
2021/10/06 06:37:31;;;;;;;5.68;4.25;;;;;;;22.67;32.08;102936.47;4973112;28;20054;-72
2021/10/06 06:39:59;;;;;;;6.28;4.30;;;;;;;23.07;31.59;102954.47;4990581;28;20046;-71
2021/10/06 06:42:27;;;;;;;6.95;5.00;;;;;;;22.65;31.58;102927.56;4978296;28;20066;-71
2021/10/06 06:44:56;;;;;;;5.22;4.22;;;;;;;22.96;31.27;102965.84;4986864;28;20431;-72
2021/10/06 06:47:25;;;;;;;5.03;3.97;;;;;;;22.85;31.84;102966.34;4990631;28;20058;-72
2021/10/06 06:49:54;;;;;;;5.47;3.53;;;;;;;22.92;31.97;102960.59;4986937;28;20058;-71
2021/10/06 06:52:25;;;;;;;7.80;5.18;;;;;;;23.00;31.28;102962.03;4989285;28;20050;-73
2021/10/06 06:54:53;;;;;;;6.10;4.82;;;;;;;22.95;31.71;102950.50;4995939;28;20072;-73
2021/10/06 06:57:21;;;;;;;5.60;4.35;;;;;;;23.09;31.11;102972.41;4990999;28;20065;-74
2021/10/06 06:59:49;;;;;;;6.07;5.05;;;;;;;22.90;31.87;102971.53;4988941;28;20616;-74
2021/10/06 07:02:19;;;;;;;5.85;4.07;;;;;;;23.01;31.28;102969.22;4985530;28;20046;-75
2021/10/06 07:04:47;;;;;;;5.20;4.20;;;;;;;22.49;31.52;102928.25;4986590;28;20151;-73
2021/10/06 07:07:17;;;;;;;6.50;5.03;;;;;;;22.49;32.03;102971.66;4987816;28;20051;-73
2021/10/06 07:09:49;;;;;;;6.13;4.20;;;;;;;23.24;31.21;102980.78;4984449;28;20068;-73
2021/10/06 07:12:17;;;;;;;6.70;4.35;;;;;;;23.17;31.34;102982.94;4987099;28;20050;-73
2021/10/06 07:14:45;;;;;;;6.75;4.65;;;;;;;22.89;31.65;102983.34;4992861;28;20050;-73
2021/10/06 07:17:16;;;;;;;7.32;4.60;;;;;;;22.64;31.82;102989.06;4985150;28;20596;-73
2021/10/06 07:19:46;;;;;;;6.00;4.75;;;;;;;22.74;31.37;102948.78;4992011;28;20066;-73
2021/10/06 07:22:15;;;;;;;7.05;5.22;;;;;;;22.82;31.27;102969.19;4970885;28;20058;-72
2021/10/06 07:24:43;;;;;;;7.85;4.88;;;;;;;23.13;31.15;102981.31;4986581;28;20064;-72
2021/10/06 07:27:11;;;;;;;7.82;5.50;;;;;;;23.12;30.64;102990.41;4990613;28;20058;-71
2021/10/06 07:29:39;;;;;;;8.52;5.35;;;;;;;22.91;31.58;102995.00;4990649;28;20061;-71
2021/10/06 07:32:07;;;;;;;6.57;4.90;;;;;;;22.65;31.19;102969.13;4984809;28;20050;-71
2021/10/06 07:34:35;;;;;;;5.70;3.67;;;;;;;22.91;31.37;102988.69;4985103;28;20054;-71
2021/10/06 07:37:04;;;;;;;7.30;4.72;;;;;;;23.25;31.32;102980.69;4988410;28;20065;-71
2021/10/06 07:39:34;;;;;;;7.32;4.85;;;;;;;23.26;30.75;102977.00;4986947;28;20493;-72
2021/10/06 07:42:02;;;;;;;5.68;4.40;;;;;;;23.09;30.83;102987.81;4989603;28;20060;-72
2021/10/06 07:44:30;;;;;;;9.45;6.25;;;;;;;22.49;30.90;102933.69;4988211;28;20572;-73
2021/10/06 07:47:00;;;;;;;7.40;5.45;;;;;;;23.21;30.71;102979.09;4982140;28;20089;-71
2021/10/06 07:49:28;;;;;;;8.52;5.65;;;;;;;22.71;30.83;102948.94;4991439;28;20058;-71
2021/10/06 07:51:57;;;;;;;5.75;4.53;;;;;;;22.92;31.10;102974.16;4982571;28;20961;-73
2021/10/06 07:54:25;;;;;;;8.82;5.10;;;;;;;22.71;31.21;102982.41;4980296;28;20050;-71
2021/10/06 07:56:54;;;;;;;5.40;4.47;;;;;;;23.14;30.66;102980.34;4990132;28;20669;-72
2021/10/06 07:59:22;;;;;;;7.90;5.82;;;;;;;22.17;31.89;102962.31;4990993;28;20050;-72
2021/10/06 08:01:50;;;;;;;7.70;4.63;;;;;;;22.38;31.47;102926.06;4987366;28;20462;-71
2021/10/06 08:04:18;;;;;;;6.35;4.15;;;;;;;23.15;31.25;102973.97;4985528;28;20061;-73
2021/10/06 08:06:47;;;;;;;5.43;4.38;;;;;;;23.41;30.66;102983.53;4984561;28;20529;-72
2021/10/06 08:09:14;;;;;;;7.40;5.18;;;;;;;23.26;30.45;102979.72;4984336;28;20529;-72
2021/10/06 08:11:43;;;;;;;6.53;4.20;;;;;;;23.56;30.30;102993.63;4983320;28;20466;-74
2021/10/06 08:14:16;;;;;;;5.47;4.38;;;;;;;23.72;30.20;102995.56;4987505;28;20073;-72
2021/10/06 08:16:44;;;;;;;11.10;5.00;;;;;;;23.31;30.47;102971.38;4987092;28;20062;-72
2021/10/06 08:19:12;;;;;;;6.15;4.80;;;;;;;22.91;30.63;102901.84;4982267;28;20081;-72
2021/10/06 08:21:41;;;;;;;8.50;5.00;;;;;;;23.50;30.09;102984.91;4977651;28;20069;-73
2021/10/06 08:24:10;;;;;;;6.07;4.45;;;;;;;23.41;30.36;102977.19;4985270;28;20050;-74
2021/10/06 08:26:38;;;;;;;6.90;4.53;;;;;;;23.69;29.99;102990.28;4968204;28;20053;-71
2021/10/06 08:29:06;;;;;;;6.85;4.72;;;;;;;23.49;30.22;102978.59;4964598;28;20046;-72
2021/10/06 08:31:37;;;;;;;6.47;4.88;;;;;;;23.46;30.22;102995.03;4984762;28;20054;-72
2021/10/06 08:34:05;;;;;;;7.57;4.63;;;;;;;23.75;30.57;103000.84;4983905;28;20062;-71
2021/10/06 08:36:37;;;;;;;6.30;4.97;;;;;;;23.18;30.23;102986.50;4983366;28;20065;-72
2021/10/06 08:39:08;;;;;;;9.27;5.68;;;;;;;23.01;30.93;102971.91;4983459;28;20169;-70
2021/10/06 08:41:37;;;;;;;7.75;4.30;;;;;;;23.66;30.13;102991.31;4982355;28;20054;-69
2021/10/06 08:44:05;;;;;;;8.55;5.53;;;;;;;23.51;30.74;102997.50;4980796;28;20058;-70
2021/10/06 08:46:35;;;;;;;7.20;4.53;;;;;;;23.22;31.26;102982.69;4978328;28;20058;-71
2021/10/06 08:49:06;;;;;;;8.93;5.43;;;;;;;23.01;31.83;103000.91;4965938;28;21137;-70
2021/10/06 08:51:34;;;;;;;6.28;4.00;;;;;;;23.29;31.32;102978.72;4981716;28;20054;-70
2021/10/06 08:54:02;;;;;;;5.88;4.60;;;;;;;23.46;31.43;103002.31;4987015;28;20637;-71
2021/10/06 08:56:30;;;;;;;6.22;4.32;;;;;;;23.35;31.53;102994.72;4991195;28;20049;-69
2021/10/06 08:58:57;;;;;;;8.55;5.15;;;;;;;23.47;30.44;102972.34;4986874;28;20072;-70
2021/10/06 09:01:28;;;;;;;7.82;4.63;;;;;;;23.60;30.47;102990.75;4985019;28;20546;-70
2021/10/06 09:04:02;;;;;;;6.55;4.60;;;;;;;23.03;31.33;102951.03;4990599;28;20069;-69
2021/10/06 09:06:32;;;;;;;;;;;;;;;23.26;31.31;102990.59;4988836;28;20060;-72
2021/10/06 09:09:00;;;;;;;7.30;4.68;;;;;;;23.60;31.21;102991.63;4987200;28;19932;-71
2021/10/06 09:11:32;;;;;;;5.72;4.63;;;;;;;23.58;31.18;102982.66;4988021;28;20057;-72
2021/10/06 09:14:02;;;;;;;6.25;4.95;;;;;;;23.81;30.93;102989.66;4988318;28;20079;-71
2021/10/06 09:16:30;;;;;;;6.78;5.03;;;;;;;23.87;30.10;102978.50;4983371;28;20065;-72
2021/10/06 09:19:00;;;;;;;7.32;4.75;;;;;;;23.18;30.54;102918.63;4979507;28;20081;-71
2021/10/06 09:21:30;;;;;;;9.13;4.88;;;;;;;23.67;30.53;102984.94;4985258;28;20503;-71
2021/10/06 09:23:58;;;;;;;5.80;5.05;;;;;;;23.79;30.96;102995.16;4985820;28;20061;-70
2021/10/06 09:26:26;;;;;;;7.80;5.60;;;;;;;23.61;30.76;102992.50;4989242;28;20062;-69
2021/10/06 09:28:55;;;;;;;6.53;4.88;;;;;;;23.61;30.56;102982.50;4985431;28;20049;-69
2021/10/06 09:31:26;;;;;;;7.50;5.60;;;;;;;23.71;30.85;102981.09;4984317;28;20070;-68
2021/10/06 09:33:55;;;;;;;7.88;5.20;;;;;;;23.77;30.58;102990.78;4976809;28;20053;-69
2021/10/06 09:36:25;;;;;;;8.02;5.05;;;;;;;23.60;30.84;102961.75;4985525;28;20593;-72
2021/10/06 09:38:56;;;;;;;7.95;4.78;;;;;;;23.80;30.84;102971.63;4986665;28;20055;-68
2021/10/06 09:41:26;;;;;;;7.63;4.93;;;;;;;23.96;30.52;102983.41;4996460;28;20072;-69
2021/10/06 09:43:59;;;;;;;6.30;4.90;;;;;;;23.67;30.42;102979.50;4988943;28;20070;-71
2021/10/06 09:46:33;;;;;;;7.78;5.05;;;;;;;23.65;30.66;102956.94;4987654;28;20057;-71
2021/10/06 09:49:01;;;;;;;7.32;5.68;;;;;;;23.37;30.75;102938.44;4973014;28;20156;-71
2021/10/06 09:51:33;;;;;;;8.43;4.93;;;;;;;23.49;30.40;102962.28;5003170;28;20045;-70
2021/10/06 09:54:01;;;;;;;8.32;5.05;;;;;;;23.57;30.71;102932.00;4987524;28;20050;-70
2021/10/06 09:56:42;;;;;;;10.70;5.57;;;;;;;23.91;30.55;102966.47;4978356;28;20046;-70
2021/10/06 09:59:12;;;;;;;6.55;5.05;;;;;;;23.69;29.81;102939.56;4980812;28;20061;-69
2021/10/06 10:01:41;;;;;;;8.82;5.43;;;;;;;23.66;30.77;102980.44;4976084;28;20493;-71
2021/10/06 10:04:11;;;;;;;7.80;5.20;;;;;;;23.71;30.36;102975.69;4978825;28;20071;-73
2021/10/06 10:06:40;;;;;;;7.00;4.53;;;;;;;23.96;30.35;102941.75;4974565;28;20061;-72
2021/10/06 10:09:09;;;;;;;5.90;4.40;;;;;;;23.98;29.85;102948.00;4983618;28;20073;-72
2021/10/06 10:11:38;;;;;;;9.02;5.20;;;;;;;23.80;29.79;102958.91;4967220;28;20065;-70
2021/10/06 10:14:07;;;;;;;5.72;5.07;;;;;;;23.67;30.01;102974.09;4982694;28;20058;-70
2021/10/06 10:16:46;;;;;;;7.40;5.22;;;;;;;23.70;30.29;102968.50;4981414;28;20065;-71
2021/10/06 10:19:16;;;;;;;7.45;4.82;;;;;;;23.95;30.45;102967.19;4979454;28;20068;-72
2021/10/06 10:21:46;;;;;;;6.57;5.25;;;;;;;23.64;30.70;102963.34;4976878;28;20062;-71
2021/10/06 10:24:21;;;;;;;8.02;6.00;;;;;;;23.08;30.67;102927.22;4972590;28;20042;-70
2021/10/06 10:26:59;;;;;;;6.40;5.00;;;;;;;23.83;30.35;102949.69;4988434;28;20058;-70
2021/10/06 10:29:45;;;;;;;6.55;5.03;;;;;;;23.81;30.19;102968.81;4989593;28;20584;-68
2021/10/06 10:32:14;;;;;;;10.13;5.25;;;;;;;23.88;29.78;102969.38;4985928;28;20162;-71
2021/10/06 10:35:01;;;;;;;7.05;5.28;;;;;;;24.03;30.16;102959.50;4980472;28;20050;-70
2021/10/06 10:38:05;;;;;;;6.10;4.00;;;;;;;23.83;30.60;102966.00;4980387;28;20054;-73
2021/10/06 10:40:53;;;;;;;5.65;4.85;;;;;;;23.90;29.95;102955.69;4979712;28;20054;-70
2021/10/06 10:43:27;;;;;;;7.25;5.32;;;;;;;23.90;30.35;102945.69;4976698;28;20062;-70
2021/10/06 10:46:11;;;;;;;9.18;5.05;;;;;;;23.89;30.32;102956.66;4983790;28;20058;-71
2021/10/06 10:49:06;;;;;;;6.00;4.72;;;;;;;23.79;30.17;102927.22;4978552;28;20144;-70
2021/10/06 10:51:45;;;;;;;6.70;4.35;;;;;;;24.14;29.92;102948.06;4907104;28;20517;-70
2021/10/06 10:54:34;;;;;;;6.05;4.32;;;;;;;24.02;29.65;102916.97;4980883;28;20057;-71
2021/10/06 10:57:07;;;;;;;7.32;4.65;;;;;;;23.97;29.36;102908.19;4978891;28;20084;-70
2021/10/06 10:59:42;;;;;;;9.65;4.95;;;;;;;24.06;30.36;102929.44;4974626;28;20054;-69
2021/10/06 11:02:24;;;;;;;6.10;4.80;;;;;;;23.78;29.89;102908.28;4970470;28;20057;-70
2021/10/06 11:04:57;;;;;;;7.97;4.47;;;;;;;23.99;29.48;102922.56;4968984;28;20065;-70
2021/10/06 11:07:26;;;;;;;11.45;4.95;;;;;;;23.76;29.80;102864.91;4969846;28;21441;-70
2021/10/06 11:09:58;;;;;;;6.00;4.43;;;;;;;24.03;30.07;102929.59;4969081;28;20050;-73
2021/10/06 11:12:54;;;;;;;6.45;5.22;;;;;;;23.67;30.09;102907.97;4971676;28;20054;-71
2021/10/06 11:15:35;;;;;;;6.72;4.60;;;;;;;23.73;29.94;102918.53;4975061;28;20054;-69
2021/10/06 11:18:28;;;;;;;6.72;4.82;;;;;;;23.82;29.90;102931.63;4972731;28;20513;-71
2021/10/06 11:21:01;;;;;;;8.07;5.03;;;;;;;23.88;29.28;102915.00;4976692;28;20053;-72
2021/10/06 11:23:47;;;;;;;6.75;5.10;;;;;;;24.04;29.14;102934.06;4971950;28;20054;-70
2021/10/06 11:26:19;;;;;;;6.40;4.80;;;;;;;23.80;29.55;102920.84;4969600;28;20062;-73
2021/10/06 11:28:50;;;;;;;7.75;5.35;;;;;;;23.25;29.31;102838.63;4975715;28;20511;-71
2021/10/06 11:31:22;;;;;;;6.43;4.63;;;;;;;23.87;29.76;102910.53;4968824;28;20386;-71
2021/10/06 11:33:49;;;;;;;5.88;4.30;;;;;;;23.66;29.51;102846.41;4968590;28;20152;-73
2021/10/06 11:36:20;;;;;;;7.25;4.38;;;;;;;23.93;28.92;102893.00;4975431;28;20050;-72